Aérodrome :
LOGIN :

S'inscrire | Disclaimer

   EN    FR    IT 

 










Légende :    VFR   VFR Marginal   IFR   IFR Intensif   IFR Très Intensif
Visi : 
Plafond : 
>= 8 km
>= 3000ft
5 à 8 km
1000 à 3000 ft
1500m à 5 km
500 à 1000 ft
800 à 1500m
200 à 500 ft
< 800m
< 200 ft
Symboles :   Orages  Brouillard  Fortes neiges  Fortes précipitations  Vent > 20 kt
SIGMETs :   Divers  Orages  Givrage  Turbulence  Onde Orograph.  Cendres Volcan.







- Altitude de l'aérodrome : 288 ft
- Code IATA : BZZ


EGVN - RAF Brize Norton

DERNIER METAR :
  • 240950Z 13008KT CAVOK 18/13 Q1018 BLU NOSIG

METARs EXPIRÉS :
  • 240850Z 12007KT CAVOK 15/12 Q1019 BLU NOSIG
  • 240817Z 12005KT 8000 HZ FEW040 BKN300 15/12 Q1019 BLU NOSIG
  • 240750Z 10004KT 7000 HZ FEW120 BKN300 14/12 Q1018 WHT BECMG 9999 NSW BLU

TAF TAF EGVN
Valide du 24 à 09h jusqu'au 25 à 09h UTC


240739Z 2409/2509 13005KT 9999 FEW030
PROB40
TEMPO 2417/2424 7000 -RA
BECMG 2421/2424 BKN018
TEMPO 2500/2509 7000 -RA SCT007
PROB30
TEMPO 2504/2508 4000 RA SCT005
Pas de NOTAMs connus pour ce terrain.



MET'MAP, la Météo Aéronautique d'un coup d'oeil ! - Copyright ORBIFLY Décembre 2007 - Disclaimer

ORBIFLY MET'MAP TEAM :

Programmation & Développement : Alexandra Zaïnal
Conception & Développement : Baudouin d'Aumeries
Co-Programmation & Développement : Marc-Olivier Méhu
Soutien technique & logistique : Manuel Goepfert

Contact : metmap@orbifly.com




SOURCES & CREDITS :

   NOAA